createdAt,value
2023-10-21T00:02:19.402Z,99897.00
2023-10-21T00:04:47.394Z,99904.75
2023-10-21T00:07:15.444Z,99904.06
2023-10-21T00:09:43.446Z,99898.66
2023-10-21T00:12:13.379Z,99895.47
2023-10-21T00:14:45.108Z,99891.53
2023-10-21T00:17:13.114Z,99894.34
2023-10-21T00:19:41.088Z,99897.31
2023-10-21T00:22:09.085Z,99892.22
2023-10-21T00:24:37.065Z,99904.09
2023-10-21T00:27:05.090Z,99838.50
2023-10-21T00:29:33.115Z,99891.22
2023-10-21T00:32:02.905Z,99897.69
2023-10-21T00:34:30.882Z,99907.38
2023-10-21T00:36:58.885Z,99899.13
2023-10-21T00:39:26.869Z,99906.75
2023-10-21T00:41:54.856Z,99901.47
2023-10-21T00:44:22.833Z,99884.00
2023-10-21T00:46:50.826Z,99894.56
2023-10-21T00:49:20.237Z,99895.91
2023-10-21T00:51:49.824Z,99894.94
2023-10-21T00:54:18.892Z,99892.16
2023-10-21T00:56:46.954Z,99888.06
2023-10-21T00:59:15.967Z,99882.78
2023-10-21T01:01:45.200Z,99873.91
2023-10-21T01:04:14.819Z,99887.72
2023-10-21T01:06:45.222Z,99890.38
2023-10-21T01:09:15.536Z,99887.06
2023-10-21T01:11:43.715Z,99895.97
2023-10-21T01:14:11.907Z,99900.88
2023-10-21T01:16:39.935Z,99906.44
2023-10-21T01:19:08.287Z,99906.44
2023-10-21T01:21:36.427Z,99905.47
2023-10-21T01:24:06.472Z,99905.81
2023-10-21T01:26:35.051Z,99912.69
2023-10-21T01:29:03.029Z,99914.03
2023-10-21T01:31:33.883Z,99907.56
2023-10-21T01:34:02.075Z,99914.31
2023-10-21T01:36:30.136Z,99919.41
2023-10-21T01:38:58.179Z,99913.78
2023-10-21T01:41:27.570Z,99911.66
2023-10-21T01:43:55.508Z,99907.97
2023-10-21T01:46:23.478Z,99919.69
2023-10-21T01:48:51.993Z,99921.78
2023-10-21T01:51:20.278Z,99925.53
2023-10-21T01:53:48.305Z,99924.28
2023-10-21T01:56:16.314Z,99918.56
2023-10-21T01:58:45.718Z,99931.41
2023-10-21T02:01:13.716Z,99932.22
2023-10-21T02:03:43.075Z,99933.13
2023-10-21T02:06:11.336Z,99917.53
2023-10-21T02:08:39.408Z,99935.78
2023-10-21T02:11:07.767Z,99928.00
2023-10-21T02:13:35.732Z,99923.66
2023-10-21T02:16:11.215Z,99937.06
2023-10-21T02:18:39.330Z,99937.81
2023-10-21T02:21:07.926Z,99940.84
2023-10-21T02:23:36.193Z,99944.22
2023-10-21T02:26:05.703Z,99928.78
2023-10-21T02:28:33.650Z,99936.44
2023-10-21T02:31:05.580Z,99942.66
2023-10-21T02:33:33.709Z,99904.28
2023-10-21T02:36:01.743Z,99947.25
2023-10-21T02:38:30.379Z,99934.28
2023-10-21T02:40:58.507Z,99949.28
2023-10-21T02:43:26.460Z,99940.72
2023-10-21T02:45:54.432Z,99947.09
2023-10-21T02:48:23.925Z,99944.03
2023-10-21T02:50:51.949Z,99945.97
2023-10-21T02:53:19.961Z,99954.38
2023-10-21T02:55:47.913Z,99961.78
2023-10-21T02:58:15.886Z,99961.78
2023-10-21T03:00:43.896Z,99964.75
2023-10-21T03:03:11.972Z,99963.28
2023-10-21T03:05:43.819Z,99964.31
2023-10-21T03:08:11.865Z,99961.38
2023-10-21T03:10:39.882Z,99969.00
2023-10-21T03:13:07.847Z,99958.59
2023-10-21T03:15:36.046Z,99971.06
2023-10-21T03:18:04.345Z,99972.59
2023-10-21T03:20:34.181Z,99964.56
2023-10-21T03:23:04.680Z,99963.13
2023-10-21T03:25:34.502Z,99962.00
2023-10-21T03:28:02.937Z,99975.84
2023-10-21T03:30:31.285Z,99968.22
2023-10-21T03:32:59.378Z,99973.63
2023-10-21T03:35:27.495Z,99969.66
2023-10-21T03:37:55.463Z,99983.47
2023-10-21T03:40:24.805Z,99958.81
2023-10-21T03:42:52.878Z,99967.69
2023-10-21T03:45:21.276Z,99971.63
2023-10-21T03:47:49.947Z,99965.50
2023-10-21T03:50:17.962Z,99962.19
2023-10-21T03:52:45.964Z,99961.72
2023-10-21T03:55:13.957Z,99954.75
2023-10-21T03:57:43.331Z,99966.44
2023-10-21T04:00:13.402Z,99965.41
2023-10-21T04:02:41.534Z,99967.41
2023-10-21T04:05:10.030Z,99951.97
2023-10-21T04:07:38.066Z,99972.13
2023-10-21T04:10:06.592Z,99968.94
2023-10-21T04:12:34.564Z,99962.19
2023-10-21T04:15:04.135Z,99972.44
2023-10-21T04:17:32.208Z,99962.38
2023-10-21T04:20:00.330Z,99963.31
2023-10-21T04:22:28.456Z,99986.63
2023-10-21T04:24:56.405Z,99974.22
2023-10-21T04:27:24.479Z,99977.78
2023-10-21T04:29:52.506Z,99981.00
2023-10-21T04:32:21.872Z,99987.09
2023-10-21T04:34:49.874Z,99987.09
2023-10-21T04:37:17.898Z,99980.50
2023-10-21T04:39:45.825Z,99984.06
2023-10-21T04:42:14.512Z,99985.75
2023-10-21T04:44:44.294Z,99990.78
2023-10-21T04:47:12.503Z,100001.25
2023-10-21T04:49:44.120Z,100005.94
2023-10-21T04:52:13.165Z,100016.97
2023-10-21T04:54:41.158Z,100018.63
2023-10-21T04:57:09.252Z,100025.22
2023-10-21T04:59:37.579Z,100028.41
2023-10-21T05:02:05.717Z,100028.41
2023-10-21T05:04:34.185Z,100033.47
2023-10-21T05:07:04.716Z,100028.53
2023-10-21T05:09:33.478Z,100031.41
2023-10-21T05:12:02.249Z,100051.97
2023-10-21T05:14:30.347Z,100046.16
2023-10-21T05:16:58.389Z,100052.53
2023-10-21T05:19:26.418Z,100057.06
2023-10-21T05:21:54.411Z,100061.59
2023-10-21T05:24:23.869Z,100069.75
2023-10-21T05:26:53.173Z,100066.00
2023-10-21T05:29:21.173Z,100055.50
2023-10-21T05:31:50.546Z,100081.25
2023-10-21T05:34:20.673Z,100080.00
2023-10-21T05:36:48.824Z,100085.09
2023-10-21T05:39:17.072Z,100083.28
2023-10-21T05:41:46.446Z,100095.94
2023-10-21T05:44:14.429Z,100089.75
2023-10-21T05:46:42.483Z,100086.84
2023-10-21T05:49:10.594Z,100086.78
2023-10-21T05:51:38.562Z,100086.84
2023-10-21T05:54:06.850Z,100098.91
2023-10-21T05:56:34.957Z,100101.72
2023-10-21T05:59:05.421Z,100107.25
2023-10-21T06:01:33.547Z,100108.63
2023-10-21T06:04:01.614Z,100114.13
2023-10-21T06:06:29.754Z,100107.97
2023-10-21T06:08:57.820Z,100117.66
2023-10-21T06:11:25.862Z,100119.25
2023-10-21T06:13:53.832Z,100121.25
2023-10-21T06:16:23.346Z,100142.69
2023-10-21T06:18:51.312Z,100151.41
2023-10-21T06:21:19.698Z,100146.97
2023-10-21T06:23:47.710Z,100151.59
2023-10-21T06:26:16.080Z,100159.16
2023-10-21T06:28:44.025Z,100159.00
2023-10-21T06:31:12.342Z,100168.38
2023-10-21T06:33:41.815Z,100162.13
2023-10-21T06:36:10.219Z,100165.56
2023-10-21T06:38:38.481Z,100161.38
2023-10-21T06:41:14.249Z,100161.75
2023-10-21T06:43:43.340Z,100156.28
2023-10-21T06:46:11.771Z,100145.00
2023-10-21T06:48:41.186Z,100155.16
2023-10-21T06:51:09.268Z,100150.81
2023-10-21T06:53:37.402Z,100154.34
2023-10-21T06:56:12.024Z,100146.75
2023-10-21T06:58:40.911Z,100157.03
2023-10-21T07:01:09.084Z,100153.09
2023-10-21T07:03:38.071Z,100149.00
2023-10-21T07:06:07.809Z,100150.22
2023-10-21T07:08:37.012Z,100152.84
2023-10-21T07:11:05.287Z,100155.00
2023-10-21T07:13:33.666Z,100156.94
2023-10-21T07:16:07.853Z,100138.66
2023-10-21T07:18:35.879Z,100164.38
2023-10-21T07:21:03.926Z,100161.47
2023-10-21T07:23:33.464Z,100146.59
2023-10-21T07:26:01.484Z,100154.13
2023-10-21T07:28:30.303Z,100157.88
2023-10-21T07:30:58.513Z,100159.72
2023-10-21T07:33:26.571Z,100158.91
2023-10-21T07:35:54.919Z,100168.28
2023-10-21T07:38:23.479Z,100175.66
2023-10-21T07:40:52.839Z,100171.69
2023-10-21T07:43:21.291Z,100177.38
2023-10-21T07:45:49.991Z,100171.75
2023-10-21T07:48:18.208Z,100168.00
2023-10-21T07:50:46.297Z,100174.69
2023-10-21T07:53:14.253Z,100168.50
2023-10-21T07:55:42.245Z,100181.22
2023-10-21T07:58:11.615Z,100177.66
2023-10-21T08:00:41.119Z,100182.22
2023-10-21T08:03:09.148Z,100179.50
2023-10-21T08:05:38.483Z,100183.69
2023-10-21T08:08:06.874Z,100175.66
2023-10-21T08:10:35.176Z,100177.59
2023-10-21T08:13:03.235Z,100181.72
2023-10-21T08:15:32.940Z,100182.91
2023-10-21T08:18:01.107Z,100177.25
2023-10-21T08:20:29.139Z,100185.03
2023-10-21T08:22:56.119Z,100185.03
2023-10-21T08:25:24.153Z,100197.09
2023-10-21T08:27:52.156Z,100200.53
2023-10-21T08:30:21.496Z,100195.88
2023-10-21T08:32:52.775Z,100198.56
2023-10-21T08:35:20.924Z,100200.00
2023-10-21T08:37:48.914Z,100203.25
2023-10-21T08:40:17.691Z,100192.19
2023-10-21T08:43:00.155Z,100207.25
2023-10-21T08:45:32.000Z,100210.88
2023-10-21T08:48:03.310Z,100212.66
2023-10-21T08:50:36.927Z,100205.97
2023-10-21T08:53:07.509Z,100211.69
2023-10-21T08:55:37.848Z,100217.19
2023-10-21T08:58:07.756Z,100221.16
2023-10-21T09:00:36.082Z,100213.22
2023-10-21T09:03:06.404Z,100208.91
2023-10-21T09:05:35.848Z,100217.88
2023-10-21T09:08:05.345Z,100210.28
2023-10-21T09:10:36.357Z,100216.69
2023-10-21T09:13:15.493Z,100201.44
2023-10-21T09:15:46.155Z,100209.66
2023-10-21T09:18:16.311Z,100210.97
2023-10-21T09:20:50.363Z,100215.88
2023-10-21T09:23:18.855Z,100217.00
2023-10-21T09:25:50.925Z,100216.69
2023-10-21T09:28:23.090Z,100211.88
2023-10-21T09:30:59.160Z,100220.75
2023-10-21T09:33:28.681Z,100218.44
2023-10-21T09:36:19.005Z,100214.97
2023-10-21T09:38:52.626Z,100220.47
2023-10-21T09:41:22.340Z,100215.56
2023-10-21T09:43:52.528Z,100207.50
2023-10-21T09:46:26.601Z,100215.19
2023-10-21T09:49:01.646Z,100209.81
2023-10-21T09:51:35.431Z,100211.47
2023-10-21T09:54:12.833Z,100205.97
2023-10-21T09:56:42.504Z,100211.09
2023-10-21T09:59:11.854Z,100205.88
2023-10-21T10:01:41.218Z,100211.13
2023-10-21T10:04:12.389Z,100204.25
2023-10-21T10:06:43.853Z,100202.25
2023-10-21T10:09:14.264Z,100198.25
2023-10-21T10:11:43.509Z,100192.22
2023-10-21T10:14:12.525Z,100173.44
2023-10-21T10:16:46.126Z,100189.69
2023-10-21T10:19:17.789Z,100185.31
2023-10-21T10:21:53.179Z,100186.66
2023-10-21T10:24:23.757Z,100187.56
2023-10-21T10:26:54.622Z,100178.41
2023-10-21T10:29:27.267Z,100177.25
2023-10-21T10:32:17.922Z,100182.50
2023-10-21T10:34:54.428Z,100176.94
2023-10-21T10:37:36.454Z,100165.59
2023-10-21T10:40:19.522Z,100177.69
2023-10-21T10:42:47.488Z,100177.34
2023-10-21T10:45:15.474Z,100171.91
2023-10-21T10:47:44.641Z,100167.81
2023-10-21T10:50:24.492Z,100178.34
2023-10-21T10:52:52.448Z,100178.16
2023-10-21T10:55:20.449Z,100172.56
2023-10-21T10:57:49.226Z,100170.41
2023-10-21T11:00:21.773Z,100170.34
2023-10-21T11:02:50.695Z,100163.50
2023-10-21T11:05:22.330Z,100168.41
2023-10-21T11:07:51.705Z,100168.22
2023-10-21T11:10:25.882Z,100165.16
2023-10-21T11:12:54.308Z,100160.16
2023-10-21T11:15:23.214Z,100146.91
2023-10-21T11:17:52.776Z,100155.78
2023-10-21T11:20:22.296Z,100158.63
2023-10-21T11:22:50.247Z,100160.91
2023-10-21T11:25:20.328Z,100166.22
2023-10-21T11:27:49.429Z,100163.38
2023-10-21T11:30:17.671Z,100163.13
2023-10-21T11:32:47.082Z,100162.31
2023-10-21T11:35:16.170Z,100158.50
2023-10-21T11:37:45.713Z,100161.50
2023-10-21T11:40:17.090Z,100155.78
2023-10-21T11:42:59.784Z,100159.88
2023-10-21T11:45:30.392Z,100158.16
2023-10-21T11:47:58.671Z,100149.50
2023-10-21T11:50:26.949Z,100154.22
2023-10-21T11:52:56.288Z,100148.28
2023-10-21T11:55:40.035Z,100147.84
2023-10-21T11:58:25.549Z,100148.47
2023-10-21T12:01:10.890Z,100148.69
2023-10-21T12:04:07.898Z,100147.84
2023-10-21T12:07:01.544Z,100144.47
2023-10-21T12:09:56.776Z,100140.03
2023-10-21T12:12:42.380Z,100137.28
2023-10-21T12:15:36.628Z,100144.59
2023-10-21T12:18:24.737Z,100138.47
2023-10-21T12:21:06.735Z,100136.31
2023-10-21T12:24:00.055Z,100140.56
2023-10-21T12:26:53.197Z,100140.50
2023-10-21T12:29:38.654Z,100138.28
2023-10-21T12:32:23.746Z,100120.09
2023-10-21T12:35:08.498Z,100133.47
2023-10-21T12:38:14.376Z,100131.75
2023-10-21T12:40:56.880Z,100133.59
2023-10-21T12:43:26.050Z,100128.22
2023-10-21T12:45:55.662Z,100122.91
2023-10-21T12:48:23.897Z,100122.59
2023-10-21T12:50:51.983Z,100124.56
2023-10-21T12:53:20.312Z,100122.91
2023-10-21T12:55:48.669Z,100116.72
2023-10-21T12:58:16.663Z,100121.25
2023-10-21T13:00:46.164Z,100112.91
2023-10-21T13:03:14.817Z,100120.44
2023-10-21T13:05:44.892Z,100101.06
2023-10-21T13:08:13.097Z,100111.91
2023-10-21T13:10:41.375Z,100099.69
2023-10-21T13:13:10.335Z,100120.88
2023-10-21T13:15:38.896Z,100100.81
2023-10-21T13:18:08.865Z,100119.22
2023-10-21T13:20:37.255Z,100113.16
2023-10-21T13:23:05.717Z,100098.41
2023-10-21T13:25:35.035Z,100108.78
2023-10-21T13:28:06.623Z,100116.00
2023-10-21T13:30:35.183Z,100114.16
2023-10-21T13:33:05.339Z,100116.00
2023-10-21T13:35:35.640Z,100109.25
2023-10-21T13:38:03.991Z,100109.69
2023-10-21T13:40:32.288Z,100106.34
2023-10-21T13:43:00.417Z,100110.13
2023-10-21T13:45:30.086Z,100098.97
2023-10-21T13:48:00.389Z,100066.50
2023-10-21T13:50:29.830Z,100108.16
2023-10-21T13:53:05.943Z,100079.88
2023-10-21T13:55:34.147Z,100105.38
2023-10-21T13:58:02.131Z,100108.03
2023-10-21T14:00:39.031Z,100106.41
2023-10-21T14:03:11.598Z,100108.19
2023-10-21T14:05:40.361Z,100108.41
2023-10-21T14:08:12.372Z,100099.19
2023-10-21T14:10:43.960Z,100102.75
2023-10-21T14:13:16.803Z,100088.03
2023-10-21T14:15:46.640Z,100093.59
2023-10-21T14:18:14.787Z,100102.31
2023-10-21T14:20:43.330Z,100098.41
2023-10-21T14:23:16.128Z,100094.31
2023-10-21T14:25:46.497Z,100090.41
2023-10-21T14:28:15.688Z,100088.25
2023-10-21T14:30:47.806Z,100097.41
2023-10-21T14:33:18.219Z,100092.91
2023-10-21T14:35:47.759Z,100100.44
2023-10-21T14:38:18.307Z,100103.09
2023-10-21T14:40:47.077Z,100102.00
2023-10-21T14:43:16.293Z,100112.09
2023-10-21T14:45:45.721Z,100103.41
2023-10-21T14:48:14.582Z,100113.38
2023-10-21T14:50:43.679Z,100109.09
2023-10-21T14:53:12.362Z,100114.94
2023-10-21T14:55:52.339Z,100102.91
2023-10-21T14:58:23.975Z,100112.16
2023-10-21T15:00:52.822Z,100115.31
2023-10-21T15:03:22.260Z,100114.94
2023-10-21T15:05:51.151Z,100119.06
2023-10-21T15:08:23.774Z,100126.06
2023-10-21T15:10:53.740Z,100119.75
2023-10-21T15:13:24.314Z,100118.34
2023-10-21T15:16:00.619Z,100126.13
2023-10-21T15:18:28.908Z,100133.72
2023-10-21T15:21:04.685Z,100134.72
2023-10-21T15:23:35.396Z,100137.56
2023-10-21T15:26:05.092Z,100138.41
2023-10-21T15:28:34.243Z,100136.91
2023-10-21T15:31:02.226Z,100134.63
2023-10-21T15:33:30.226Z,100141.53
2023-10-21T15:35:58.200Z,100144.31
2023-10-21T15:38:26.156Z,100131.13
2023-10-21T15:40:54.109Z,100131.84
2023-10-21T15:43:23.524Z,100153.72
2023-10-21T15:46:00.041Z,100149.34
2023-10-21T15:48:28.174Z,100157.06
2023-10-21T15:51:08.347Z,100151.66
2023-10-21T15:53:36.347Z,100156.25
2023-10-21T15:56:04.406Z,100168.34
2023-10-21T15:58:33.773Z,100168.75
2023-10-21T16:01:01.766Z,100154.34
2023-10-21T16:03:29.959Z,100169.19
2023-10-21T16:05:58.711Z,100163.50
2023-10-21T16:08:26.725Z,100150.56
2023-10-21T16:11:01.900Z,100169.50
2023-10-21T16:13:29.893Z,100170.44
2023-10-21T16:16:00.667Z,100174.03
2023-10-21T16:18:28.973Z,100181.69
2023-10-21T16:20:57.023Z,100177.13
2023-10-21T16:23:24.998Z,100182.75
2023-10-21T16:25:52.950Z,100179.34
2023-10-21T16:28:20.949Z,100186.22
2023-10-21T16:30:48.980Z,100186.16
2023-10-21T16:33:18.472Z,100182.31
2023-10-21T16:35:47.126Z,100183.94
2023-10-21T16:38:15.933Z,100187.56
2023-10-21T16:40:44.350Z,100180.41
2023-10-21T16:43:12.660Z,100191.91
2023-10-21T16:45:44.127Z,100171.25
2023-10-21T16:48:12.293Z,100210.53
2023-10-21T16:50:41.837Z,100202.56
2023-10-21T16:53:10.657Z,100211.22
2023-10-21T16:55:38.799Z,100198.47
2023-10-21T16:58:06.764Z,100197.34
2023-10-21T17:00:34.767Z,100190.13
2023-10-21T17:03:05.631Z,100200.06
2023-10-21T17:05:35.658Z,100205.84
2023-10-21T17:08:06.072Z,100204.47
2023-10-21T17:10:35.237Z,100198.41
2023-10-21T17:13:03.253Z,100201.94
2023-10-21T17:15:31.728Z,100201.00
2023-10-21T17:17:59.986Z,100197.81
2023-10-21T17:20:28.799Z,100203.09
2023-10-21T17:22:57.297Z,100198.97
2023-10-21T17:25:27.879Z,100218.47
2023-10-21T17:27:55.911Z,100215.75
2023-10-21T17:30:23.920Z,100210.16
2023-10-21T17:32:52.526Z,100220.66
2023-10-21T17:35:23.159Z,100216.97
2023-10-21T17:37:52.260Z,100195.75
2023-10-21T17:40:20.266Z,100230.09
2023-10-21T17:42:49.704Z,100223.19
2023-10-21T17:45:18.320Z,100233.41
2023-10-21T17:47:46.335Z,100222.97
2023-10-21T17:50:15.037Z,100217.50
2023-10-21T17:52:43.058Z,100222.44
2023-10-21T17:55:11.015Z,100215.53
2023-10-21T17:57:41.009Z,100188.69
2023-10-21T18:00:12.247Z,100226.59
2023-10-21T18:02:40.464Z,100229.06
2023-10-21T18:05:08.985Z,100227.59
2023-10-21T18:07:36.922Z,100210.13
2023-10-21T18:10:05.639Z,100234.41
2023-10-21T18:12:33.794Z,100238.84
2023-10-21T18:15:04.203Z,100225.47
2023-10-21T18:17:35.239Z,100241.47
2023-10-21T18:20:05.170Z,100254.69
2023-10-21T18:22:33.476Z,100262.63
2023-10-21T18:25:01.479Z,100251.72
2023-10-21T18:27:30.701Z,100245.78
2023-10-21T18:29:58.790Z,100262.13
2023-10-21T18:32:26.759Z,100243.78
2023-10-21T18:34:56.112Z,100266.69
2023-10-21T18:37:24.048Z,100243.41
2023-10-21T18:39:52.045Z,100259.28
2023-10-21T18:42:19.997Z,100269.31
2023-10-21T18:44:48.015Z,100268.50
2023-10-21T18:47:16.016Z,100277.53
2023-10-21T18:49:43.991Z,100270.47
2023-10-21T18:52:17.428Z,100269.00
2023-10-21T18:54:45.638Z,100262.53
2023-10-21T18:57:13.719Z,100242.41
2023-10-21T18:59:41.920Z,100266.19
2023-10-21T19:02:15.978Z,100269.31
2023-10-21T19:04:45.639Z,100242.88
2023-10-21T19:07:16.089Z,100253.13
2023-10-21T19:09:44.483Z,100255.66
2023-10-21T19:12:12.546Z,100253.84
2023-10-21T19:14:40.607Z,100239.31
2023-10-21T19:17:08.618Z,100253.47
2023-10-21T19:19:37.214Z,100257.31
2023-10-21T19:22:05.524Z,100261.63
2023-10-21T19:24:34.986Z,100258.81
2023-10-21T19:27:02.994Z,100252.38
2023-10-21T19:29:31.626Z,100260.97
2023-10-21T19:31:59.781Z,100248.56
2023-10-21T19:34:28.758Z,100261.97
2023-10-21T19:36:57.173Z,100251.38
2023-10-21T19:39:28.074Z,100259.13
2023-10-21T19:41:57.637Z,100269.22
2023-10-21T19:44:27.027Z,100265.56
2023-10-21T19:46:56.207Z,100246.41
2023-10-21T19:49:24.915Z,100273.44
2023-10-21T19:51:53.072Z,100274.75
2023-10-21T19:54:21.083Z,100274.44
2023-10-21T19:56:49.080Z,100278.25
2023-10-21T19:59:18.431Z,100273.84
2023-10-21T20:01:46.468Z,100262.94
2023-10-21T20:04:14.800Z,100272.16
2023-10-21T20:06:42.885Z,100254.97
2023-10-21T20:09:12.205Z,100260.56
2023-10-21T20:11:40.374Z,100260.88
2023-10-21T20:14:08.459Z,100239.78
2023-10-21T20:16:37.811Z,100270.13
2023-10-21T20:19:05.851Z,100254.94
2023-10-21T20:21:37.027Z,100280.94
2023-10-21T20:24:05.728Z,100277.28
2023-10-21T20:26:33.860Z,100276.91
2023-10-21T20:29:01.850Z,100278.34
2023-10-21T20:31:32.796Z,100282.25
2023-10-21T20:34:02.657Z,100285.03
2023-10-21T20:36:30.841Z,100277.53
2023-10-21T20:38:58.860Z,100280.44
2023-10-21T20:41:26.824Z,100262.59
2023-10-21T20:43:54.794Z,100271.25
2023-10-21T20:46:22.922Z,100270.88
2023-10-21T20:48:50.966Z,100274.25
2023-10-21T20:51:20.429Z,100277.25
2023-10-21T20:53:48.422Z,100265.22
2023-10-21T20:56:22.169Z,100258.97
2023-10-21T20:58:50.500Z,100258.81
2023-10-21T21:03:49.745Z,100256.47
2023-10-21T21:06:17.825Z,100245.25
2023-10-21T21:08:47.183Z,100254.00
2023-10-21T21:11:15.259Z,100250.84
2023-10-21T21:13:43.666Z,100244.22
2023-10-21T21:16:12.128Z,100249.78
2023-10-21T21:18:41.328Z,100241.31
2023-10-21T21:21:09.561Z,100249.50
2023-10-21T21:23:37.504Z,100243.84
2023-10-21T21:26:06.877Z,100241.63
2023-10-21T21:28:34.940Z,100231.72
2023-10-21T21:31:02.961Z,100232.53
2023-10-21T21:33:31.121Z,100227.88
2023-10-21T21:36:00.220Z,100230.50
2023-10-21T21:38:28.703Z,100234.94
2023-10-21T21:40:56.674Z,100235.28
2023-10-21T21:43:27.950Z,100229.38
2023-10-21T21:45:56.785Z,100225.91
2023-10-21T21:48:24.936Z,100219.81
2023-10-21T21:50:53.054Z,100214.41
2023-10-21T21:53:21.005Z,100224.84
2023-10-21T21:55:55.373Z,100229.47
2023-10-21T21:58:23.420Z,100218.31
2023-10-21T22:00:55.123Z,100225.06
2023-10-21T22:03:23.615Z,100214.81
2023-10-21T22:05:53.805Z,100213.34
2023-10-21T22:08:22.225Z,100222.53
2023-10-21T22:10:50.659Z,100217.09
2023-10-21T22:13:19.221Z,100226.63
2023-10-21T22:15:47.525Z,100223.72
2023-10-21T22:18:16.990Z,100233.59
2023-10-21T22:20:45.222Z,100225.81
2023-10-21T22:23:13.298Z,100225.38
2023-10-21T22:25:41.391Z,100230.69
2023-10-21T22:28:13.093Z,100226.47
2023-10-21T22:30:42.365Z,100231.06
2023-10-21T22:33:10.483Z,100221.66
2023-10-21T22:35:40.404Z,100226.09
2023-10-21T22:38:09.070Z,100223.00
2023-10-21T22:40:37.096Z,100226.09
2023-10-21T22:43:05.084Z,100225.13
2023-10-21T22:45:34.230Z,100229.13
2023-10-21T22:48:03.147Z,100238.81
2023-10-21T22:50:31.326Z,100237.16
2023-10-21T22:53:01.367Z,100237.50
2023-10-21T22:55:29.329Z,100236.81
2023-10-21T22:57:57.727Z,100239.31
2023-10-21T23:00:28.278Z,100221.34
2023-10-21T23:02:59.935Z,100241.94
2023-10-21T23:05:28.447Z,100242.31
2023-10-21T23:07:58.847Z,100232.75
2023-10-21T23:10:29.761Z,100216.78
2023-10-21T23:12:57.942Z,100242.88
2023-10-21T23:15:25.948Z,100249.06
2023-10-21T23:17:54.488Z,100246.25
2023-10-21T23:20:22.497Z,100243.53
2023-10-21T23:22:50.493Z,100251.28
2023-10-21T23:25:21.375Z,100249.84
2023-10-21T23:27:54.005Z,100240.81
2023-10-21T23:30:22.596Z,100248.09
2023-10-21T23:32:51.595Z,100248.13
2023-10-21T23:35:20.198Z,100251.00
2023-10-21T23:37:48.833Z,100260.34
2023-10-21T23:40:17.041Z,100247.03
2023-10-21T23:42:47.448Z,100259.44
2023-10-21T23:45:17.382Z,100253.00
2023-10-21T23:47:45.658Z,100262.56
2023-10-21T23:50:15.730Z,100251.69
2023-10-21T23:52:44.237Z,100254.00
2023-10-21T23:55:12.974Z,100248.69
2023-10-21T23:57:42.186Z,100256.97
